Terminal Aerodrome Forecast
Issued by NWS St Louis, MO

Home | Current Version | Previous Version | Text Only | Print | Product List | Glossary On
Versions: 1 2 3 4 5 6 7 8 9 10 11 12 13 14 15 16 17 18 19 20
000
FTUS43 KLSX 191100
TAFCOU
TAF
KCOU 191120Z 1912/2012 20006KT P6SM VCSH BKN200
     FM191500 22008KT P6SM SCT030 BKN120
     FM200100 20005KT P6SM SCT250=

USA.gov is the U.S. government's official web portal to all federal, state and local government web resources and services.